College Park, Nevada
Current Conditions -  °F | °C
As of 11:53 PM on Tuesday 25 Nov 2014 (Local Time) from KVGT Reporting Station
Clear Clear  
Wind Chill: 43°   Ceiling: Unl
Heat Index: 45°   Visibility: 10mi
Dew Point: 17°   Wind: 5mph
Humidity: 33%   Direction: 300°WNW
Pressure: 30.38"   Gusts: NA
Location:  36.2257°N, 115.178°W
Report Text: KVGT 260753Z 30004KT 10SM CLR 07/M08 A3038 RMK AO2 SLP307 T00721083 401670033
Loading
Personal Weather Stations






























Interactive Weather Map New forecast layout! Learn more

10-Day Weather Forecast

Advertisements
Track Severe Weather on mobile